Airport View

Enter AWOS ICAO identifier for current METAR.

ex. KFNL

KPTN 031656Z AUTO 34009KT 10SM VCTS BKN026 BKN033 32/26 A2997 RMK AO2 LTG DSNT E AND SW TSB1559E36B37 SLP149 T03170261

3 Jul 2020 17:52

Frequency: 134.575

Phone: 985-395-6735

Other Area AWOS: K7R3 - KP92 - KARA - KREG

TAF KARA 031135Z 0312/0412 28005KT P6SM SCT040 FM031500 30010KT P6SM SCT035 FM031700 29009KT P6SM VCTS SCT025CB BKN050 TEMPO 0319/0323 3SM TSRA BKN020CB OVC040 FM040000 30006KT P6SM VCSH SCT050 BKN150 FM040400 VRB03KT P6SM FEW025 SCT180